createdAt,value
2023-05-23T00:02:17.788Z,96684.59
2023-05-23T00:04:44.574Z,96667.84
2023-05-23T00:07:11.384Z,96678.22
2023-05-23T00:09:38.034Z,96684.63
2023-05-23T00:12:05.108Z,96623.31
2023-05-23T00:14:33.934Z,96674.31
2023-05-23T00:17:01.779Z,96691.75
2023-05-23T00:19:28.741Z,96642.75
2023-05-23T00:21:58.646Z,96660.72
2023-05-23T00:24:25.456Z,96682.97
2023-05-23T00:26:52.133Z,96643.16
2023-05-23T00:29:19.691Z,96675.81
2023-05-23T00:31:47.034Z,96645.59
2023-05-23T00:34:15.181Z,96663.09
2023-05-23T00:36:43.674Z,96669.47
2023-05-23T00:39:19.031Z,96673.81
2023-05-23T00:41:48.627Z,96653.53
2023-05-23T00:44:17.208Z,96660.66
2023-05-23T00:46:47.667Z,96663.44
2023-05-23T00:49:14.572Z,96639.94
2023-05-23T00:51:43.225Z,96655.91
2023-05-23T00:54:10.133Z,96657.38
2023-05-23T00:56:37.116Z,96652.13
2023-05-23T00:59:03.837Z,96624.69
2023-05-23T01:01:30.879Z,96657.31
2023-05-23T01:03:58.529Z,96654.84
2023-05-23T01:06:25.229Z,96634.16
2023-05-23T01:11:47.248Z,96652.84
2023-05-23T01:14:22.062Z,96638.91
2023-05-23T01:17:01.700Z,96643.28
2023-05-23T01:19:49.073Z,96648.44
2023-05-23T01:22:42.064Z,96651.66
2023-05-23T01:25:43.668Z,96639.06
2023-05-23T01:28:16.725Z,96545.06
2023-05-23T01:30:45.872Z,96641.44
2023-05-23T01:33:16.442Z,96627.03
2023-05-23T01:35:43.867Z,96646.06
2023-05-23T01:38:10.586Z,96640.47
2023-05-23T01:40:38.956Z,96646.94
2023-05-23T01:43:05.833Z,96639.00
2023-05-23T01:45:32.652Z,96601.53
2023-05-23T01:47:59.962Z,96646.84
2023-05-23T01:50:27.118Z,96654.03
2023-05-23T01:52:54.933Z,96636.56
2023-05-23T01:55:24.326Z,96648.56
2023-05-23T01:57:51.992Z,96632.34
2023-05-23T02:00:18.863Z,96645.31
2023-05-23T02:02:46.371Z,96549.13
2023-05-23T02:05:13.234Z,96573.03
2023-05-23T02:07:39.966Z,96614.47
2023-05-23T02:10:09.149Z,96612.91
2023-05-23T02:12:35.802Z,96593.38
2023-05-23T02:15:02.507Z,96639.59
2023-05-23T02:17:29.265Z,96592.19
2023-05-23T02:19:56.879Z,96590.97
2023-05-23T02:22:25.186Z,96644.75
2023-05-23T02:24:52.329Z,96638.03
2023-05-23T02:27:19.589Z,96643.97
2023-05-23T02:29:46.178Z,96642.75
2023-05-23T02:32:12.832Z,96627.97
2023-05-23T02:34:40.433Z,96643.91
2023-05-23T02:37:07.610Z,96546.09
2023-05-23T02:39:36.717Z,96639.94
2023-05-23T02:42:04.864Z,96642.66
2023-05-23T02:44:31.909Z,96640.56
2023-05-23T02:46:58.515Z,96631.16
2023-05-23T02:49:25.736Z,96645.06
2023-05-23T02:51:52.387Z,96636.69
2023-05-23T02:54:19.005Z,96646.22
2023-05-23T02:56:46.600Z,96628.53
2023-05-23T02:59:13.854Z,96543.09
2023-05-23T03:01:40.649Z,96644.63
2023-05-23T03:04:07.361Z,96557.97
2023-05-23T03:06:34.402Z,96646.91
2023-05-23T03:09:01.772Z,96633.56
2023-05-23T03:11:29.993Z,96590.97
2023-05-23T03:13:56.704Z,96631.69
2023-05-23T03:16:26.209Z,96581.22
2023-05-23T03:18:52.929Z,96635.72
2023-05-23T03:21:19.621Z,96644.88
2023-05-23T03:23:46.242Z,96639.75
2023-05-23T03:26:12.941Z,96647.22
2023-05-23T03:28:39.526Z,96573.75
2023-05-23T03:31:06.278Z,96611.13
2023-05-23T03:33:33.177Z,96638.59
2023-05-23T03:35:59.843Z,96648.97
2023-05-23T03:38:27.713Z,96648.19
2023-05-23T03:40:54.301Z,96581.44
2023-05-23T03:43:20.963Z,96643.47
2023-05-23T03:45:47.612Z,96645.88
2023-05-23T03:48:14.239Z,96648.31
2023-05-23T03:50:40.815Z,96554.53
2023-05-23T03:53:07.667Z,96613.72
2023-05-23T03:55:34.381Z,96606.97
2023-05-23T03:58:01.003Z,96643.56
2023-05-23T04:00:27.750Z,96580.41
2023-05-23T04:02:54.467Z,96551.78
2023-05-23T04:05:21.613Z,96627.97
2023-05-23T04:07:50.355Z,96645.00
2023-05-23T04:10:17.162Z,96646.19
2023-05-23T04:12:43.911Z,96610.88
2023-05-23T04:15:11.414Z,96606.03
2023-05-23T04:17:38.921Z,96654.47
2023-05-23T04:20:12.977Z,96645.25
2023-05-23T04:22:39.815Z,96654.31
2023-05-23T04:25:06.913Z,96642.34
2023-05-23T04:27:34.672Z,96652.59
2023-05-23T04:30:01.734Z,96644.44
2023-05-23T04:32:28.582Z,96626.81
2023-05-23T04:34:56.911Z,96661.66
2023-05-23T04:37:26.374Z,96644.78
2023-05-23T04:39:53.708Z,96653.34
2023-05-23T04:42:24.650Z,96570.66
2023-05-23T04:44:52.811Z,96645.38
2023-05-23T04:47:19.587Z,96653.06
2023-05-23T04:49:46.374Z,96624.50
2023-05-23T04:52:13.493Z,96616.22
2023-05-23T04:54:44.736Z,96657.44
2023-05-23T04:57:12.503Z,96654.31
2023-05-23T04:59:39.524Z,96585.06
2023-05-23T05:02:06.625Z,96607.63
2023-05-23T05:04:33.311Z,96675.09
2023-05-23T05:06:59.952Z,96654.94
2023-05-23T05:09:26.742Z,96658.19
2023-05-23T05:11:53.463Z,96668.22
2023-05-23T05:14:20.100Z,96658.31
2023-05-23T05:16:47.939Z,96671.44
2023-05-23T05:19:14.684Z,96594.78
2023-05-23T05:21:41.346Z,96668.00
2023-05-23T05:24:09.712Z,96634.38
2023-05-23T05:26:36.859Z,96646.44
2023-05-23T05:29:04.188Z,96675.94
2023-05-23T05:31:31.087Z,96674.13
2023-05-23T05:33:57.757Z,96677.44
2023-05-23T05:36:24.398Z,96675.16
2023-05-23T05:38:51.327Z,96641.75
2023-05-23T05:41:17.976Z,96659.31
2023-05-23T05:43:44.636Z,96684.56
2023-05-23T05:46:12.115Z,96693.66
2023-05-23T05:48:38.822Z,96673.81
2023-05-23T05:51:05.511Z,96694.50
2023-05-23T05:53:32.186Z,96697.25
2023-05-23T05:55:58.929Z,96705.75
2023-05-23T05:58:25.606Z,96656.59
2023-05-23T06:00:53.631Z,96708.50
2023-05-23T06:03:20.351Z,96704.38
2023-05-23T06:05:46.992Z,96704.53
2023-05-23T06:08:13.647Z,96686.97
2023-05-23T06:10:40.548Z,96704.50
2023-05-23T06:13:07.375Z,96705.16
2023-05-23T06:15:33.952Z,96702.34
2023-05-23T06:18:00.610Z,96607.13
2023-05-23T06:20:27.440Z,96715.59
2023-05-23T06:22:54.028Z,96703.84
2023-05-23T06:25:20.924Z,96684.78
2023-05-23T06:27:47.597Z,96711.25
2023-05-23T06:30:14.875Z,96659.38
2023-05-23T06:32:41.538Z,96716.59
2023-05-23T06:35:08.695Z,96717.38
2023-05-23T06:37:35.354Z,96707.72
2023-05-23T06:40:02.073Z,96709.19
2023-05-23T06:42:29.462Z,96711.69
2023-05-23T06:44:56.536Z,96710.69
2023-05-23T06:47:23.487Z,96708.53
2023-05-23T06:49:50.197Z,96596.56
2023-05-23T06:52:16.919Z,96712.00
2023-05-23T06:54:43.722Z,96711.75
2023-05-23T06:57:10.346Z,96711.03
2023-05-23T06:59:37.088Z,96714.94
2023-05-23T07:02:03.789Z,96698.50
2023-05-23T07:04:30.634Z,96720.44
2023-05-23T07:06:57.292Z,96716.91
2023-05-23T07:09:23.905Z,96712.59
2023-05-23T07:11:50.547Z,96705.31
2023-05-23T07:14:17.213Z,96703.75
2023-05-23T07:16:43.941Z,96702.25
2023-05-23T07:19:10.744Z,96697.66
2023-05-23T07:21:37.455Z,96694.78
2023-05-23T07:24:04.092Z,96697.03
2023-05-23T07:26:31.024Z,96604.69
2023-05-23T07:28:58.268Z,96696.22
2023-05-23T07:31:24.964Z,96687.78
2023-05-23T07:33:55.823Z,96690.06
2023-05-23T07:36:23.667Z,96689.91
2023-05-23T07:38:50.343Z,96674.75
2023-05-23T07:41:17.038Z,96671.03
2023-05-23T07:43:43.665Z,96590.66
2023-05-23T07:46:10.339Z,96685.06
2023-05-23T07:48:37.157Z,96684.94
2023-05-23T07:51:04.089Z,96639.00
2023-05-23T07:53:30.738Z,96679.13
2023-05-23T07:55:57.357Z,96690.66
2023-05-23T07:58:23.983Z,96690.22
2023-05-23T08:00:52.707Z,96619.84
2023-05-23T08:03:19.831Z,96706.88
2023-05-23T08:05:47.279Z,96645.97
2023-05-23T08:08:13.973Z,96687.72
2023-05-23T08:10:41.021Z,96655.94
2023-05-23T08:13:10.168Z,96604.75
2023-05-23T08:15:36.937Z,96683.34
2023-05-23T08:18:05.115Z,96667.47
2023-05-23T08:20:32.310Z,96301.41
2023-05-23T08:23:02.863Z,96674.53
2023-05-23T08:25:33.265Z,96675.63
2023-05-23T08:28:01.272Z,96646.63
2023-05-23T08:30:29.029Z,96662.94
2023-05-23T08:32:56.784Z,96660.22
2023-05-23T08:35:23.710Z,96648.66
2023-05-23T08:37:50.950Z,96589.16
2023-05-23T08:40:23.110Z,96659.97
2023-05-23T08:42:51.038Z,96651.38
2023-05-23T08:45:18.367Z,96638.25
2023-05-23T08:47:46.424Z,96640.94
2023-05-23T08:50:16.187Z,96626.97
2023-05-23T08:52:57.712Z,96657.53
2023-05-23T08:55:27.351Z,96661.88
2023-05-23T08:57:54.941Z,96664.19
2023-05-23T09:00:22.522Z,96566.94
2023-05-23T09:02:49.577Z,96666.88
2023-05-23T09:05:16.997Z,96657.66
2023-05-23T09:07:47.970Z,96654.34
2023-05-23T09:10:20.094Z,96625.06
2023-05-23T09:12:47.389Z,96615.63
2023-05-23T09:15:14.872Z,96655.03
2023-05-23T09:17:41.759Z,96651.34
2023-05-23T09:20:16.945Z,96649.78
2023-05-23T09:22:48.266Z,96651.94
2023-05-23T09:25:15.584Z,96568.78
2023-05-23T09:27:44.978Z,96640.25
2023-05-23T09:30:14.184Z,96634.69
2023-05-23T09:32:42.216Z,96644.63
2023-05-23T09:35:13.873Z,96641.97
2023-05-23T09:37:46.955Z,96644.28
2023-05-23T09:40:14.896Z,96643.38
2023-05-23T09:42:44.292Z,96647.94
2023-05-23T09:45:14.920Z,96643.97
2023-05-23T09:47:51.481Z,96649.38
2023-05-23T09:50:18.554Z,96642.03
2023-05-23T09:52:45.251Z,96648.00
2023-05-23T09:55:12.092Z,96653.19
2023-05-23T09:57:42.637Z,96651.31
2023-05-23T10:00:14.030Z,96638.44
2023-05-23T10:03:14.897Z,96644.94
2023-05-23T10:05:47.630Z,96568.50
2023-05-23T10:08:27.364Z,96657.06
2023-05-23T10:10:57.111Z,96645.91
2023-05-23T10:13:27.990Z,96648.53
2023-05-23T10:16:03.046Z,96654.88
2023-05-23T10:18:34.692Z,96651.38
2023-05-23T10:21:12.510Z,96615.63
2023-05-23T10:23:39.536Z,96633.69
2023-05-23T10:26:07.101Z,96567.06
2023-05-23T10:28:33.914Z,96607.78
2023-05-23T10:31:00.633Z,96651.72
2023-05-23T10:33:36.657Z,96386.06
2023-05-23T10:36:19.569Z,96646.22
2023-05-23T10:38:52.116Z,96553.66
2023-05-23T10:41:24.825Z,96630.63
2023-05-23T10:43:57.505Z,96649.16
2023-05-23T10:46:24.309Z,96641.16
2023-05-23T10:48:57.315Z,96530.31
2023-05-23T10:51:24.996Z,96590.69
2023-05-23T10:53:54.747Z,96643.38
2023-05-23T10:56:23.921Z,96618.00
2023-05-23T10:58:55.085Z,96641.50
2023-05-23T11:01:22.444Z,96582.50
2023-05-23T11:03:54.583Z,96636.44
2023-05-23T11:06:32.850Z,96626.69
2023-05-23T11:09:09.823Z,96617.47
2023-05-23T11:12:06.076Z,96569.84
2023-05-23T11:14:33.830Z,96625.44
2023-05-23T11:17:33.305Z,96628.88
2023-05-23T11:20:06.044Z,96622.63
2023-05-23T11:22:34.447Z,96563.34
2023-05-23T11:25:06.307Z,96629.50
2023-05-23T11:27:35.168Z,96620.09
2023-05-23T11:30:16.400Z,96594.81
2023-05-23T11:32:51.094Z,96626.31
2023-05-23T11:35:18.018Z,96631.72
2023-05-23T11:37:44.765Z,96628.25
2023-05-23T11:40:32.341Z,96318.13
2023-05-23T11:43:00.193Z,96626.66
2023-05-23T11:45:28.346Z,96629.72
2023-05-23T11:47:55.307Z,96542.28
2023-05-23T11:50:22.312Z,96610.59
2023-05-23T11:52:52.025Z,96616.91
2023-05-23T11:55:22.706Z,96512.81
2023-05-23T11:57:51.788Z,96578.53
2023-05-23T12:00:19.660Z,96601.38
2023-05-23T12:02:49.018Z,96547.41
2023-05-23T12:05:16.101Z,96308.06
2023-05-23T12:07:47.913Z,96603.91
2023-05-23T12:10:16.403Z,96593.25
2023-05-23T12:12:43.925Z,96603.41
2023-05-23T12:15:12.296Z,96544.56
2023-05-23T12:17:40.235Z,96596.81
2023-05-23T12:20:07.886Z,96584.03
2023-05-23T12:22:34.984Z,96590.19
2023-05-23T12:25:02.442Z,96599.94
2023-05-23T12:27:30.361Z,96593.97
2023-05-23T12:30:09.466Z,96598.06
2023-05-23T12:32:47.432Z,96583.44
2023-05-23T12:35:16.066Z,96541.81
2023-05-23T12:37:46.058Z,96558.34
2023-05-23T12:40:18.413Z,96561.13
2023-05-23T12:42:57.620Z,96555.97
2023-05-23T12:45:34.194Z,96552.78
2023-05-23T12:48:02.331Z,96507.16
2023-05-23T12:50:29.409Z,96534.69
2023-05-23T12:52:56.083Z,96508.25
2023-05-23T12:55:22.982Z,96543.16
2023-05-23T12:57:49.583Z,96536.16
2023-05-23T13:00:16.654Z,96535.78
2023-05-23T13:02:43.386Z,96533.19
2023-05-23T13:05:10.204Z,96549.88
2023-05-23T13:07:37.941Z,96527.22
2023-05-23T13:10:05.125Z,96531.91
2023-05-23T13:12:33.009Z,96546.66
2023-05-23T13:14:59.728Z,96540.00
2023-05-23T13:17:26.414Z,96536.84
2023-05-23T13:19:53.037Z,96539.94
2023-05-23T13:22:19.680Z,96536.66
2023-05-23T13:24:46.499Z,96492.94
2023-05-23T13:27:13.210Z,96541.91
2023-05-23T13:29:40.083Z,96536.13
2023-05-23T13:32:06.977Z,96550.00
2023-05-23T13:34:37.305Z,96547.66
2023-05-23T13:37:04.903Z,96552.03
2023-05-23T13:39:31.641Z,96495.44
2023-05-23T13:41:58.298Z,96561.06
2023-05-23T13:44:25.040Z,96543.69
2023-05-23T13:46:51.841Z,96547.56
2023-05-23T13:49:18.768Z,96548.25
2023-05-23T13:51:45.514Z,96553.38
2023-05-23T13:54:13.430Z,96509.47
2023-05-23T13:56:40.454Z,96549.91
2023-05-23T13:59:07.222Z,96500.78
2023-05-23T14:01:33.934Z,96533.00
2023-05-23T14:04:01.081Z,96544.13
2023-05-23T14:06:27.682Z,96198.31
2023-05-23T14:08:54.303Z,96539.50
2023-05-23T14:11:21.008Z,96535.44
2023-05-23T14:13:47.611Z,96529.66
2023-05-23T14:16:14.302Z,96524.06
2023-05-23T14:18:41.029Z,96530.09
2023-05-23T14:21:07.652Z,96526.34
2023-05-23T14:23:34.270Z,96529.91
2023-05-23T14:26:01.101Z,96491.53
2023-05-23T14:28:27.760Z,96519.22
2023-05-23T14:30:55.633Z,96526.16
2023-05-23T14:33:22.520Z,96472.41
2023-05-23T14:35:49.396Z,96488.94
2023-05-23T14:38:16.314Z,96544.38
2023-05-23T14:40:44.092Z,96532.19
2023-05-23T14:43:11.693Z,96541.59
2023-05-23T14:45:38.684Z,96548.66
2023-05-23T14:48:06.259Z,96549.44
2023-05-23T14:50:33.072Z,96527.59
2023-05-23T14:52:59.883Z,96497.22
2023-05-23T14:55:26.619Z,96552.53
2023-05-23T14:57:53.211Z,96445.56
2023-05-23T15:00:20.062Z,96522.69
2023-05-23T15:02:46.834Z,96480.09
2023-05-23T15:05:15.332Z,96502.63
2023-05-23T15:07:41.996Z,96468.91
2023-05-23T15:10:08.652Z,96560.31
2023-05-23T15:12:35.315Z,96559.78
2023-05-23T15:15:04.859Z,96521.66
2023-05-23T15:17:33.956Z,96557.47
2023-05-23T15:20:00.776Z,96521.59
2023-05-23T15:22:36.423Z,96563.72
2023-05-23T15:25:05.556Z,96554.34
2023-05-23T15:27:32.331Z,96524.25
2023-05-23T15:29:59.222Z,96565.50
2023-05-23T15:32:26.154Z,96561.81
2023-05-23T15:34:53.121Z,96557.44
2023-05-23T15:37:20.080Z,96513.25
2023-05-23T15:39:48.693Z,96550.34
2023-05-23T15:42:15.762Z,96574.28
2023-05-23T15:44:42.461Z,96533.88
2023-05-23T15:47:09.124Z,96571.59
2023-05-23T15:49:35.806Z,96573.16
2023-05-23T15:52:02.445Z,96526.72
2023-05-23T15:54:29.106Z,96574.94
2023-05-23T15:56:55.707Z,96562.88
2023-05-23T15:59:22.445Z,96556.97
2023-05-23T16:01:49.098Z,96561.41
2023-05-23T16:04:16.219Z,96554.81
2023-05-23T16:06:42.877Z,96502.88
2023-05-23T16:09:09.525Z,96549.84
2023-05-23T16:11:36.217Z,96553.53
2023-05-23T16:14:02.930Z,96560.09
2023-05-23T16:16:29.687Z,96534.22
2023-05-23T16:18:56.552Z,96545.31
2023-05-23T16:21:23.336Z,96547.22
2023-05-23T16:23:50.030Z,96549.09
2023-05-23T16:26:17.279Z,96544.78
2023-05-23T16:28:43.999Z,96543.38
2023-05-23T16:31:17.704Z,96554.19
2023-05-23T16:33:47.643Z,96543.41
2023-05-23T16:36:14.288Z,96514.50
2023-05-23T16:38:40.920Z,96551.28
2023-05-23T16:41:07.583Z,96548.75
2023-05-23T16:43:34.993Z,96559.31
2023-05-23T16:46:01.688Z,96560.47
2023-05-23T16:48:28.378Z,96557.88
2023-05-23T16:50:55.262Z,96553.81
2023-05-23T16:53:22.430Z,96512.13
2023-05-23T16:55:49.146Z,96550.91
2023-05-23T16:58:17.520Z,96507.06
2023-05-23T17:00:45.287Z,96570.38
2023-05-23T17:03:12.100Z,96524.66
2023-05-23T17:05:39.384Z,96582.63
2023-05-23T17:08:06.327Z,96572.69
2023-05-23T17:10:33.581Z,96577.38
2023-05-23T17:13:00.191Z,96584.50
2023-05-23T17:15:26.944Z,96581.19
2023-05-23T17:17:53.568Z,96588.44
2023-05-23T17:20:24.081Z,96591.09
2023-05-23T17:22:51.901Z,96595.88
2023-05-23T17:25:19.042Z,96540.25
2023-05-23T17:27:46.261Z,96606.66
2023-05-23T17:30:18.602Z,96547.91
2023-05-23T17:32:47.029Z,96607.09
2023-05-23T17:35:14.238Z,96611.97
2023-05-23T17:37:43.469Z,96586.16
2023-05-23T17:40:11.877Z,96613.19
2023-05-23T17:42:42.175Z,96600.00
2023-05-23T17:45:12.114Z,96612.88
2023-05-23T17:47:39.405Z,96611.06
2023-05-23T17:50:07.525Z,96612.31
2023-05-23T17:52:34.967Z,96570.72
2023-05-23T17:55:01.854Z,96618.97
2023-05-23T17:57:31.094Z,96628.88
2023-05-23T17:59:58.202Z,96603.09
2023-05-23T18:02:25.123Z,96589.03
2023-05-23T18:04:51.790Z,96616.00
2023-05-23T18:07:21.387Z,96637.19
2023-05-23T18:09:48.695Z,96638.06
2023-05-23T18:12:16.563Z,96638.94
2023-05-23T18:14:43.726Z,96577.63
2023-05-23T18:17:10.475Z,96645.47
2023-05-23T18:19:37.373Z,96653.69
2023-05-23T18:22:04.368Z,96658.13
2023-05-23T18:24:31.054Z,96661.28
2023-05-23T18:26:58.275Z,96656.63
2023-05-23T18:29:25.035Z,96632.69
2023-05-23T18:31:51.830Z,96667.66
2023-05-23T18:34:18.724Z,96609.44
2023-05-23T18:36:45.437Z,96665.81
2023-05-23T18:39:12.072Z,96680.38
2023-05-23T18:41:38.744Z,96677.41
2023-05-23T18:44:05.465Z,96686.59
2023-05-23T18:46:32.161Z,96685.56
2023-05-23T18:48:58.898Z,96621.91
2023-05-23T18:51:26.778Z,96691.16
2023-05-23T18:53:53.473Z,96693.09
2023-05-23T18:56:20.696Z,96690.56
2023-05-23T18:58:48.034Z,96695.47
2023-05-23T19:01:14.707Z,96683.84
2023-05-23T19:03:41.620Z,96682.97
2023-05-23T19:06:08.412Z,96703.19
2023-05-23T19:08:35.128Z,96697.44
2023-05-23T19:11:01.923Z,96697.88
2023-05-23T19:13:28.629Z,96701.31
2023-05-23T19:15:55.345Z,96662.44
2023-05-23T19:18:22.675Z,96703.72
2023-05-23T19:20:51.764Z,96707.38
2023-05-23T19:23:19.150Z,96640.00
2023-05-23T19:25:45.876Z,96691.25
2023-05-23T19:28:15.099Z,96708.75
2023-05-23T19:30:41.980Z,96703.84
2023-05-23T19:33:08.908Z,96714.38
2023-05-23T19:35:35.613Z,96719.78
2023-05-23T19:38:02.254Z,96715.13
2023-05-23T19:40:28.967Z,96723.25
2023-05-23T19:42:55.743Z,96724.16
2023-05-23T19:45:22.430Z,96722.69
2023-05-23T19:47:49.136Z,96721.50
2023-05-23T19:50:15.990Z,96718.88
2023-05-23T19:52:42.643Z,96718.88
2023-05-23T19:55:10.263Z,96711.94
2023-05-23T19:57:37.355Z,96715.94
2023-05-23T20:00:05.896Z,96720.66
2023-05-23T20:02:32.568Z,96705.16
2023-05-23T20:04:59.223Z,96721.91
2023-05-23T20:07:25.957Z,96724.38
2023-05-23T20:09:52.593Z,96724.38
2023-05-23T20:12:19.262Z,96725.34
2023-05-23T20:14:46.109Z,96728.34
2023-05-23T20:17:12.796Z,96730.34
2023-05-23T20:19:40.191Z,96680.44
2023-05-23T20:22:06.897Z,96729.66
2023-05-23T20:24:33.659Z,96736.09
2023-05-23T20:27:00.598Z,96735.50
2023-05-23T20:29:27.210Z,96736.16
2023-05-23T20:31:53.880Z,96738.53
2023-05-23T20:34:20.701Z,96744.56
2023-05-23T20:36:47.324Z,96734.59
2023-05-23T20:39:14.008Z,96733.41
2023-05-23T20:41:42.209Z,96693.09
2023-05-23T20:44:14.112Z,96730.22
2023-05-23T20:46:40.811Z,96729.13
2023-05-23T20:49:07.488Z,96726.66
2023-05-23T20:51:35.503Z,96734.91
2023-05-23T20:54:03.290Z,96731.97
2023-05-23T20:56:31.078Z,96715.25
2023-05-23T20:59:00.314Z,96731.88
2023-05-23T21:01:27.723Z,96577.31
2023-05-23T21:03:55.619Z,96666.91
2023-05-23T21:06:22.478Z,96736.69
2023-05-23T21:08:49.267Z,96737.47
2023-05-23T21:11:15.929Z,96677.13
2023-05-23T21:13:43.016Z,96645.47
2023-05-23T21:16:12.564Z,96729.56
2023-05-23T21:18:39.329Z,96750.28
2023-05-23T21:21:06.125Z,96756.59
2023-05-23T21:23:32.801Z,96753.69
2023-05-23T21:25:59.397Z,96627.94
2023-05-23T21:28:26.138Z,96750.06
2023-05-23T21:30:53.324Z,96692.22
2023-05-23T21:33:19.970Z,96756.56
2023-05-23T21:35:46.703Z,96762.13
2023-05-23T21:38:13.400Z,96753.31
2023-05-23T21:40:40.261Z,96770.84
2023-05-23T21:43:07.136Z,96695.63
2023-05-23T21:45:33.735Z,96753.50
2023-05-23T21:48:00.548Z,96759.41
2023-05-23T21:50:27.371Z,96683.22
2023-05-23T21:52:54.180Z,96764.97
2023-05-23T21:55:21.029Z,96754.38
2023-05-23T21:57:47.734Z,96820.16
2023-05-23T22:00:15.396Z,96712.69
2023-05-23T22:02:44.342Z,96749.16
2023-05-23T22:05:11.631Z,96753.13
2023-05-23T22:07:38.317Z,96750.03
2023-05-23T22:10:05.532Z,96747.38
2023-05-23T22:12:32.322Z,96323.41
2023-05-23T22:14:58.908Z,96754.69
2023-05-23T22:17:26.484Z,96695.50
2023-05-23T22:19:53.541Z,96734.78
2023-05-23T22:22:20.192Z,96735.63
2023-05-23T22:24:46.842Z,96612.94
2023-05-23T22:27:13.574Z,96749.47
2023-05-23T22:29:40.181Z,96678.44
2023-05-23T22:32:07.069Z,96737.59
2023-05-23T22:34:33.781Z,96739.63
2023-05-23T22:37:01.241Z,96735.25
2023-05-23T22:39:27.992Z,96737.72
2023-05-23T22:41:54.646Z,96742.41
2023-05-23T22:44:21.411Z,96728.88
2023-05-23T22:46:48.033Z,96708.38
2023-05-23T22:49:15.483Z,96725.84
2023-05-23T22:51:42.247Z,96727.81
2023-05-23T22:54:08.860Z,96717.09
2023-05-23T22:56:35.517Z,96721.94
2023-05-23T22:59:02.202Z,96720.34
2023-05-23T23:01:28.929Z,96717.91
2023-05-23T23:03:55.636Z,96696.50
2023-05-23T23:06:22.309Z,96702.81
2023-05-23T23:08:49.916Z,96704.44
2023-05-23T23:11:16.698Z,96689.38
2023-05-23T23:13:43.285Z,96695.00
2023-05-23T23:16:10.002Z,96689.41
2023-05-23T23:18:36.703Z,96691.81
2023-05-23T23:21:03.690Z,96682.22
2023-05-23T23:23:30.451Z,96683.75
2023-05-23T23:25:57.183Z,96681.06
2023-05-23T23:28:23.817Z,96683.03
2023-05-23T23:30:50.457Z,96679.84
2023-05-23T23:33:17.168Z,96680.69
2023-05-23T23:35:48.405Z,96598.06
2023-05-23T23:38:15.856Z,96658.50
2023-05-23T23:40:45.306Z,96616.03
2023-05-23T23:43:12.887Z,96681.59
2023-05-23T23:45:39.566Z,96566.47
2023-05-23T23:48:06.362Z,96689.66
2023-05-23T23:50:33.078Z,96640.38
2023-05-23T23:52:59.858Z,96643.16
2023-05-23T23:55:26.565Z,96684.88
2023-05-23T23:57:53.277Z,96614.16
